PWSweather.com
Personal Weather Stations
Station Observations
PHMDWX
Perry Hall, MD 21236

Perry Hall, MD 21236

Lat: 39.418318, Lon: -76.490039

Elevation: 305

Station Type: Davis Vantage Pro

www.phmdwx.net

High Low Average
Temperature 61.0°F16.1°F 28.4°F-2.0°F 45.0°F7.2°F
Dew Point 50.0°F10.0°F 26.4°F-3.1°F 37.2°F2.9°F
Winds 11.5 mph S18.5 mph S Calm Calm 2.6 mph 4.2 mph
Wind Gusts 21.0 mph33.8 mph -- 4.4 mph7.1 mph
Humidity 94% 61% 75%
Pressure 30.06 in1017.90 in 29.37 in994.60 in -
Precipitation 0.00 in0.00 in - -
Hour Temp Dew Point Humidity Winds Wind Gusts Pressure Precip Precip Rate Daily Precip Total
12:00 AM 30.9°F-0.6°C 27.2°F-2.7°C 86% 0.3 mph NW0.5 kmh NW 1.0 mph1.6 kmh 30.06 in1017.9 mb - 0.00 in0.0 mm 0.00 in0.0 mm
12:30 AM 31.0°F-0.6°C 27.9°F-2.3°C 88% Calm Calm -- 30.05 in1017.6 mb - 0.00 in0.0 mm 0.00 in0.0 mm
01:00 AM 30.7°F-0.7°C 27.6°F-2.4°C 88% Calm Calm -- 30.04 in1017.3 mb - 0.00 in0.0 mm 0.00 in0.0 mm
01:30 AM 31.0°F-0.6°C 28.4°F-2.0°C 90% Calm Calm -- 30.02 in1016.6 mb - 0.00 in0.0 mm 0.00 in0.0 mm
02:00 AM 30.4°F-0.9°C 27.5°F-2.5°C 89% Calm Calm -- 30.01 in1016.3 mb - 0.00 in0.0 mm 0.00 in0.0 mm
02:30 AM 29.4°F-1.4°C 26.8°F-2.9°C 90% Calm Calm -- 30.00 in1015.9 mb - 0.00 in0.0 mm 0.00 in0.0 mm
03:00 AM 28.8°F-1.8°C 26.5°F-3.1°C 91% Calm Calm -- 29.99 in1015.6 mb - 0.00 in0.0 mm 0.00 in0.0 mm
03:30 AM 28.4°F-2.0°C 26.4°F-3.1°C 92% Calm Calm -- 29.99 in1015.6 mb - 0.00 in0.0 mm 0.00 in0.0 mm
04:00 AM 28.7°F-1.8°C 26.9°F-2.8°C 93% Calm Calm -- 29.98 in1015.2 mb - 0.00 in0.0 mm 0.00 in0.0 mm
04:30 AM 28.4°F-2.0°C 26.6°F-3.0°C 93% Calm Calm -- 29.96 in1014.6 mb - 0.00 in0.0 mm 0.00 in0.0 mm
05:00 AM 29.8°F-1.2°C 28.3°F-2.1°C 94% 0.1 mph WSW0.2 kmh WSW 2.0 mph3.2 kmh 29.97 in1014.9 mb - 0.00 in0.0 mm 0.00 in0.0 mm
05:30 AM 33.1°F0.6°C 30.8°F-0.7°C 91% Calm Calm -- 29.95 in1014.2 mb - 0.00 in0.0 mm 0.00 in0.0 mm
06:00 AM 32.8°F0.4°C 29.9°F-1.2°C 89% Calm Calm -- 29.93 in1013.5 mb - 0.00 in0.0 mm 0.00 in0.0 mm
06:30 AM 32.5°F0.3°C 29.6°F-1.3°C 89% Calm Calm -- 29.92 in1013.2 mb - 0.00 in0.0 mm 0.00 in0.0 mm
07:00 AM 31.8°F-0.1°C 29.2°F-1.6°C 90% Calm Calm -- 29.91 in1012.9 mb - 0.00 in0.0 mm 0.00 in0.0 mm
07:30 AM 32.8°F0.4°C 30.5°F-0.8°C 91% 0.8 mph SSE1.3 kmh SSE 2.0 mph3.2 kmh 29.90 in1012.5 mb - 0.00 in0.0 mm 0.00 in0.0 mm
08:00 AM 39.5°F4.2°C 33.9°F1.1°C 80% 2.1 mph S3.4 kmh S 5.0 mph8.0 kmh 29.89 in1012.2 mb - 0.00 in0.0 mm 0.00 in0.0 mm
08:30 AM 45.1°F7.3°C 34.8°F1.6°C 67% 6.8 mph SSE10.9 kmh SSE 8.0 mph12.9 kmh 29.87 in1011.5 mb - 0.00 in0.0 mm 0.00 in0.0 mm
09:00 AM 45.2°F7.3°C 34.9°F1.6°C 67% 3.0 mph SE4.8 kmh SE 5.0 mph8.0 kmh 29.86 in1011.2 mb - 0.00 in0.0 mm 0.00 in0.0 mm
09:30 AM 46.0°F7.8°C 35.3°F1.8°C 66% 5.0 mph SSE8.0 kmh SSE 10.0 mph16.1 kmh 29.85 in1010.8 mb - 0.00 in0.0 mm 0.00 in0.0 mm
10:00 AM 47.1°F8.4°C 35.9°F2.2°C 65% 1.7 mph SE2.7 kmh SE 4.0 mph6.4 kmh 29.83 in1010.2 mb - 0.00 in0.0 mm 0.00 in0.0 mm
10:30 AM 47.9°F8.8°C 35.9°F2.2°C 63% 4.4 mph SSE7.1 kmh SSE 7.0 mph11.3 kmh 29.83 in1010.2 mb - 0.00 in0.0 mm 0.00 in0.0 mm
11:00 AM 48.0°F8.9°C 36.4°F2.4°C 64% 2.0 mph SE3.2 kmh SE 7.0 mph11.3 kmh 29.81 in1009.5 mb - 0.00 in0.0 mm 0.00 in0.0 mm
11:30 AM 48.6°F9.2°C 36.6°F2.6°C 63% 2.9 mph SSE4.7 kmh SSE 3.0 mph4.8 kmh 29.77 in1008.1 mb - 0.00 in0.0 mm 0.00 in0.0 mm
12:00 PM 50.0°F10.0°C 37.1°F2.8°C 61% 2.9 mph SSE4.7 kmh SSE 2.0 mph3.2 kmh 29.74 in1007.1 mb - 0.00 in0.0 mm 0.00 in0.0 mm
12:30 PM 51.2°F10.7°C 38.6°F3.7°C 62% 2.7 mph SSE4.3 kmh SSE 6.0 mph9.7 kmh 29.71 in1006.1 mb - 0.00 in0.0 mm 0.00 in0.0 mm
01:00 PM 51.9°F11.1°C 39.7°F4.3°C 63% 1.9 mph E3.1 kmh E 3.0 mph4.8 kmh 29.69 in1005.4 mb - 0.00 in0.0 mm 0.00 in0.0 mm
01:30 PM 53.0°F11.7°C 40.7°F4.8°C 63% 1.6 mph E2.6 kmh E 3.0 mph4.8 kmh 29.67 in1004.7 mb - 0.00 in0.0 mm 0.00 in0.0 mm
02:00 PM 54.1°F12.3°C 42.6°F5.9°C 65% 2.1 mph SE3.4 kmh SE 3.0 mph4.8 kmh 29.65 in1004.1 mb - 0.00 in0.0 mm 0.00 in0.0 mm
02:30 PM 53.9°F12.2°C 42.0°F5.6°C 64% 3.8 mph SE6.1 kmh SE 7.0 mph11.3 kmh 29.64 in1003.7 mb - 0.00 in0.0 mm 0.00 in0.0 mm
03:00 PM 54.1°F12.3°C 42.6°F5.9°C 65% 2.7 mph SE4.3 kmh SE 5.0 mph8.0 kmh 29.62 in1003.0 mb - 0.00 in0.0 mm 0.00 in0.0 mm
03:30 PM 54.1°F12.3°C 43.8°F6.6°C 68% 3.9 mph SE6.3 kmh SE 6.0 mph9.7 kmh 29.60 in1002.4 mb - 0.00 in0.0 mm 0.00 in0.0 mm
04:00 PM 53.5°F11.9°C 45.4°F7.4°C 74% 1.7 mph SSE2.7 kmh SSE 2.0 mph3.2 kmh 29.60 in1002.4 mb - 0.00 in0.0 mm 0.00 in0.0 mm
04:30 PM 52.8°F11.6°C 45.1°F7.3°C 75% 2.3 mph SE3.7 kmh SE 4.0 mph6.4 kmh 29.58 in1001.7 mb - 0.00 in0.0 mm 0.00 in0.0 mm
05:00 PM 53.1°F11.7°C 42.4°F5.8°C 67% 4.8 mph S7.7 kmh S 8.0 mph12.9 kmh 29.57 in1001.4 mb - 0.00 in0.0 mm 0.00 in0.0 mm
05:30 PM 53.5°F11.9°C 42.0°F5.6°C 65% 5.3 mph SSE8.5 kmh SSE 8.0 mph12.9 kmh 29.57 in1001.4 mb - 0.00 in0.0 mm 0.00 in0.0 mm
06:00 PM 53.2°F11.8°C 42.1°F5.6°C 66% 2.3 mph SE3.7 kmh SE 5.0 mph8.0 kmh 29.54 in1000.3 mb - 0.00 in0.0 mm 0.00 in0.0 mm
06:30 PM 53.1°F11.7°C 43.5°F6.4°C 70% 4.5 mph SSE7.2 kmh SSE 5.0 mph8.0 kmh 29.54 in1000.3 mb - 0.00 in0.0 mm 0.00 in0.0 mm
07:00 PM 52.9°F11.6°C 43.4°F6.3°C 70% 1.7 mph SE2.7 kmh SE 3.0 mph4.8 kmh 29.51 in999.3 mb - 0.00 in0.0 mm 0.00 in0.0 mm
07:30 PM 52.8°F11.6°C 43.7°F6.5°C 71% 3.9 mph SSE6.3 kmh SSE 6.0 mph9.7 kmh 29.51 in999.3 mb - 0.00 in0.0 mm 0.00 in0.0 mm
08:00 PM 52.3°F11.3°C 43.9°F6.6°C 73% 2.4 mph E3.9 kmh E 3.0 mph4.8 kmh 29.48 in998.3 mb - 0.00 in0.0 mm 0.00 in0.0 mm
08:30 PM 52.5°F11.4°C 44.4°F6.9°C 74% 0.2 mph SE0.3 kmh SE 1.0 mph1.6 kmh 29.47 in998.0 mb - 0.00 in0.0 mm 0.00 in0.0 mm
09:00 PM 53.5°F11.9°C 44.7°F7.1°C 72% 3.0 mph SSE4.8 kmh SSE 6.0 mph9.7 kmh 29.45 in997.3 mb - 0.00 in0.0 mm 0.00 in0.0 mm
09:30 PM 56.7°F13.7°C 46.6°F8.1°C 69% 7.3 mph SSE11.7 kmh SSE 14.0 mph22.5 kmh 29.43 in996.6 mb - 0.00 in0.0 mm 0.00 in0.0 mm
10:00 PM 58.7°F14.8°C 47.8°F8.8°C 67% 8.1 mph SW13.0 kmh SW 12.0 mph19.3 kmh 29.41 in995.9 mb - 0.00 in0.0 mm 0.00 in0.0 mm
10:30 PM 59.6°F15.3°C 48.6°F9.2°C 67% 8.2 mph SW13.2 kmh SW 12.0 mph19.3 kmh 29.39 in995.3 mb - 0.00 in0.0 mm 0.00 in0.0 mm
11:00 PM 60.4°F15.8°C 49.4°F9.7°C 67% 7.1 mph S11.4 kmh S 12.0 mph19.3 kmh 29.38 in994.9 mb - 0.00 in0.0 mm 0.00 in0.0 mm
11:30 PM 61.0°F16.1°C 50.0°F10.0°C 67% 11.5 mph S18.5 kmh S 21.0 mph33.8 kmh 29.37 in994.6 mb - 0.00 in0.0 mm 0.00 in0.0 mm